Time;durP1;ratioP1;P1;durP2;ratioP2;P2;SDS_P1;SDS_P2;PMS_P1;PMS_P2;Temp;Humidity;BMP_temperature;BMP_pressure;BME280_temperature;BME280_humidity;BME280_pressure;Samples;Min_cycle;Max_cycle;Signal;HPM_P1;HPM_P2
2022/01/10 00:02:10;;;;;;;0.70;0.60;;;;;;;12.26;42.24;95236.38;5094954;28;20098;-30
2022/01/10 00:04:36;;;;;;;0.93;0.60;;;;;;;11.83;43.47;95243.22;5095136;28;20042;-30
2022/01/10 00:07:02;;;;;;;0.47;0.40;;;;;;;12.06;43.14;95239.72;5095046;28;20023;-30
2022/01/10 00:09:28;;;;;;;0.50;0.50;;;;;;;12.24;42.61;95238.81;5094884;28;20035;-30
2022/01/10 00:11:53;;;;;;;0.75;0.50;;;;;;;12.00;42.93;95238.09;5094595;28;20036;-30
2022/01/10 00:14:19;;;;;;;0.65;0.40;;;;;;;12.09;42.73;95229.91;5094897;28;20081;-30
2022/01/10 00:16:44;;;;;;;0.52;0.50;;;;;;;12.21;42.47;95229.66;5094650;28;20055;-30
2022/01/10 00:19:09;;;;;;;0.82;0.70;;;;;;;12.14;42.37;95237.38;5094658;28;20381;-30
2022/01/10 00:21:35;;;;;;;0.60;0.40;;;;;;;12.18;42.29;95232.53;5094741;28;20063;-30
2022/01/10 00:24:00;;;;;;;0.88;0.50;;;;;;;12.07;42.62;95243.19;5094540;28;20039;-30
2022/01/10 00:26:26;;;;;;;0.57;0.50;;;;;;;12.25;42.54;95237.59;5094504;28;20119;-30
2022/01/10 00:28:51;;;;;;;0.50;0.43;;;;;;;12.41;41.94;95247.28;5094580;28;20436;-30
2022/01/10 00:31:18;;;;;;;0.90;0.60;;;;;;;12.16;42.80;95233.00;5094838;28;20027;-30
2022/01/10 00:33:43;;;;;;;0.50;0.47;;;;;;;12.27;42.21;95231.72;5094416;28;20422;-30
2022/01/10 00:36:09;;;;;;;0.52;0.45;;;;;;;12.34;42.09;95234.06;5094452;28;20179;-30
2022/01/10 00:38:35;;;;;;;0.82;0.57;;;;;;;12.42;41.71;95238.69;5094541;28;20077;-30
2022/01/10 00:41:01;;;;;;;0.82;0.40;;;;;;;12.25;42.16;95240.31;5094277;28;20103;-30
2022/01/10 00:43:32;;;;;;;0.70;0.50;;;;;;;12.21;42.47;95234.34;5094302;28;20085;-30
2022/01/10 00:45:59;;;;;;;0.60;0.50;;;;;;;12.36;42.10;95245.25;5094276;28;20024;-29
2022/01/10 00:48:24;;;;;;;0.75;0.50;;;;;;;12.44;42.02;95247.13;5094236;28;20024;-30
2022/01/10 00:50:50;;;;;;;0.73;0.40;;;;;;;12.36;42.17;95246.00;5094087;28;20027;-30
2022/01/10 00:53:15;;;;;;;0.57;0.40;;;;;;;12.37;42.10;95258.34;5093814;28;20040;-30
2022/01/10 00:55:41;;;;;;;0.60;0.50;;;;;;;12.36;41.88;95246.00;5092967;28;20032;-29
2022/01/10 00:58:06;;;;;;;0.85;0.57;;;;;;;12.35;41.81;95247.22;5094267;28;20078;-30
2022/01/10 01:00:32;;;;;;;0.73;0.50;;;;;;;12.31;41.89;95249.34;5093845;28;20020;-30
2022/01/10 01:03:00;;;;;;;0.73;0.38;;;;;;;12.28;41.96;95250.28;5092755;28;20051;-30
2022/01/10 01:05:27;;;;;;;0.60;0.50;;;;;;;12.40;41.88;95245.78;5093871;28;20378;-30
2022/01/10 01:07:52;;;;;;;0.73;0.50;;;;;;;12.40;41.94;95249.25;5093700;28;20028;-31
2022/01/10 01:13:13;;;;;;;0.65;0.43;;;;;;;12.36;41.99;95251.44;5093869;28;20028;-30
2022/01/10 01:24:06;;;;;;;1.17;0.47;;;;;;;12.08;42.39;95266.44;5093771;28;20073;-30
2022/01/10 01:26:34;;;;;;;0.50;0.40;;;;;;;12.24;42.44;95263.28;5093733;28;20389;-30
2022/01/10 01:29:00;;;;;;;0.68;0.43;;;;;;;12.15;41.97;95258.69;5092203;28;20040;-30
2022/01/10 01:31:26;;;;;;;0.30;0.30;;;;;;;12.01;42.93;95256.66;5093456;28;20023;-30
2022/01/10 01:33:52;;;;;;;0.60;0.50;;;;;;;12.30;42.24;95249.81;5093329;28;20381;-30
2022/01/10 01:36:22;;;;;;;0.70;0.50;;;;;;;11.99;42.36;95261.06;5093506;28;20110;-30
2022/01/10 01:38:48;;;;;;;1.10;0.55;;;;;;;12.28;41.89;95269.31;5093515;28;20062;-30
2022/01/10 01:43:55;;;;;;;0.73;0.47;;;;;;;12.28;42.30;95263.88;5093338;28;20055;-30
2022/01/10 01:46:21;;;;;;;0.68;0.50;;;;;;;12.27;42.28;95256.16;5093254;28;20520;-31
2022/01/10 01:48:48;;;;;;;0.77;0.50;;;;;;;12.32;41.79;95266.41;5093384;28;20031;-30
2022/01/10 01:51:14;;;;;;;0.52;0.40;;;;;;;12.21;42.13;95261.50;5093275;28;20028;-30
2022/01/10 01:53:40;;;;;;;0.50;0.40;;;;;;;12.27;41.92;95259.63;5093004;28;20055;-30
2022/01/10 01:56:08;;;;;;;0.50;0.43;;;;;;;12.38;41.95;95254.41;5093202;28;20024;-30
2022/01/10 01:58:35;;;;;;;0.65;0.50;;;;;;;12.26;42.03;95246.50;5093027;28;20036;-30
2022/01/10 02:01:01;;;;;;;0.80;0.52;;;;;;;12.30;42.12;95257.97;5092139;28;20035;-30
2022/01/10 02:03:26;;;;;;;1.00;0.45;;;;;;;12.20;42.23;95247.16;5093114;28;20390;-30
2022/01/10 02:05:52;;;;;;;0.50;0.40;;;;;;;12.14;42.45;95253.69;5094780;28;20016;-30
2022/01/10 02:08:17;;;;;;;0.60;0.40;;;;;;;12.06;42.64;95255.28;5097274;28;20024;-30
2022/01/10 02:10:43;;;;;;;0.80;0.43;;;;;;;12.24;42.08;95249.69;5097245;28;20028;-30
2022/01/10 02:13:08;;;;;;;0.77;0.57;;;;;;;12.24;42.13;95244.25;5097152;28;20099;-30
2022/01/10 02:18:20;;;;;;;0.40;0.40;;;;;;;12.21;42.00;95243.25;5097143;28;20053;-30
2022/01/10 02:20:46;;;;;;;0.95;0.40;;;;;;;12.30;41.86;95252.53;5097055;28;20106;-30
2022/01/10 02:23:13;;;;;;;0.68;0.40;;;;;;;12.00;41.98;95243.53;5097018;28;20107;-30
2022/01/10 02:25:39;;;;;;;0.60;0.32;;;;;;;11.86;42.75;95237.63;5096810;28;20020;-30
2022/01/10 02:28:05;;;;;;;0.60;0.40;;;;;;;12.18;42.36;95240.69;5097291;28;20047;-30
2022/01/10 02:30:31;;;;;;;0.82;0.57;;;;;;;12.14;42.21;95242.84;5097007;28;20467;-30
2022/01/10 02:33:00;;;;;;;0.98;0.50;;;;;;;12.23;42.24;95242.78;5096619;28;20031;-30
2022/01/10 02:35:30;;;;;;;0.70;0.50;;;;;;;12.28;41.99;95246.81;5096674;28;20355;-30
2022/01/10 02:37:55;;;;;;;0.50;0.40;;;;;;;12.33;41.73;95249.63;5096633;28;20026;-30
2022/01/10 02:40:25;;;;;;;0.60;0.40;;;;;;;12.27;41.92;95237.13;5096557;28;20028;-30
2022/01/10 02:42:51;;;;;;;0.95;0.40;;;;;;;12.18;42.24;95246.88;5096666;28;20016;-30
2022/01/10 02:45:18;;;;;;;0.50;0.47;;;;;;;11.83;42.76;95238.53;5096468;28;20024;-30
2022/01/10 02:47:44;;;;;;;0.38;0.30;;;;;;;12.04;42.06;95246.84;5096605;28;20382;-30
2022/01/10 02:50:11;;;;;;;0.60;0.40;;;;;;;12.28;41.64;95236.69;5095193;28;20028;-30
2022/01/10 02:52:37;;;;;;;0.82;0.43;;;;;;;11.99;42.63;95228.47;5096579;28;20056;-30
2022/01/10 02:55:05;;;;;;;0.40;0.40;;;;;;;12.03;42.17;95237.19;5096348;28;20024;-30
2022/01/10 02:57:31;;;;;;;0.85;0.63;;;;;;;12.05;42.17;95230.06;5096166;28;20441;-30
2022/01/10 02:59:57;;;;;;;0.55;0.45;;;;;;;12.22;42.02;95225.72;5096312;28;20024;-30
2022/01/10 03:02:27;;;;;;;1.00;0.57;;;;;;;12.25;41.80;95215.84;5096161;28;20481;-30
2022/01/10 03:05:09;;;;;;;0.90;0.40;;;;;;;12.27;41.94;95226.28;5096263;28;20088;-30
2022/01/10 03:07:35;;;;;;;0.65;0.30;;;;;;;12.10;42.09;95217.81;5094716;28;20016;-30
2022/01/10 03:10:00;;;;;;;0.50;0.40;;;;;;;12.20;41.89;95221.97;5094865;28;20027;-30
2022/01/10 03:12:30;;;;;;;0.70;0.40;;;;;;;12.06;42.22;95209.09;5095936;28;20023;-30
2022/01/10 03:14:57;;;;;;;0.82;0.40;;;;;;;11.93;42.51;95220.19;5096205;28;20023;-29
2022/01/10 03:17:23;;;;;;;0.30;0.30;;;;;;;12.17;42.11;95214.72;5094905;28;20107;-30
2022/01/10 03:19:48;;;;;;;0.52;0.30;;;;;;;12.19;41.99;95223.16;5096061;28;20026;-30
2022/01/10 03:22:14;;;;;;;0.85;0.40;;;;;;;12.19;42.08;95215.00;5095993;28;20115;-30
2022/01/10 03:24:39;;;;;;;0.38;0.30;;;;;;;12.31;41.70;95216.72;5095934;28;20021;-30
2022/01/10 03:27:04;;;;;;;0.52;0.30;;;;;;;12.28;41.55;95212.22;5095850;28;20446;-30
2022/01/10 03:29:30;;;;;;;0.73;0.30;;;;;;;12.17;42.13;95212.75;5095755;28;20466;-30
2022/01/10 03:31:55;;;;;;;0.45;0.38;;;;;;;12.04;42.27;95209.53;5095594;28;20418;-30
2022/01/10 03:34:21;;;;;;;0.50;0.40;;;;;;;12.14;42.15;95207.50;5095635;28;20028;-30
2022/01/10 03:36:47;;;;;;;0.30;0.30;;;;;;;12.18;41.93;95218.94;5095458;28;20100;-30
2022/01/10 03:39:13;;;;;;;0.45;0.30;;;;;;;12.02;42.03;95220.13;5095472;28;20022;-31
2022/01/10 03:41:39;;;;;;;0.30;0.30;;;;;;;12.26;41.85;95214.66;5095750;28;20024;-30
2022/01/10 03:44:06;;;;;;;1.95;0.30;;;;;;;12.14;41.94;95208.25;5095438;28;20028;-30
2022/01/10 03:46:33;;;;;;;0.70;0.60;;;;;;;12.19;41.71;95206.88;5095408;28;20024;-30
2022/01/10 03:49:00;;;;;;;0.70;0.32;;;;;;;12.07;42.12;95218.75;5095087;28;20385;-30
2022/01/10 03:51:25;;;;;;;0.57;0.30;;;;;;;11.81;42.73;95219.22;5095416;28;20028;-30
2022/01/10 03:53:51;;;;;;;0.57;0.38;;;;;;;11.85;42.61;95227.97;5094995;28;20051;-30
2022/01/10 03:56:16;;;;;;;0.40;0.30;;;;;;;11.68;42.64;95234.97;5095097;28;20576;-30
2022/01/10 03:58:42;;;;;;;1.02;0.52;;;;;;;12.06;42.34;95238.97;5095060;28;20509;-30
2022/01/10 04:01:08;;;;;;;0.40;0.30;;;;;;;12.16;42.22;95238.44;5095202;28;20016;-30
2022/01/10 04:03:35;;;;;;;0.82;0.38;;;;;;;12.16;41.94;95237.69;5094875;28;20020;-30
2022/01/10 04:06:00;;;;;;;0.60;0.40;;;;;;;12.23;41.47;95238.09;5094850;28;20405;-30
2022/01/10 04:08:26;;;;;;;0.50;0.50;;;;;;;12.20;41.66;95249.13;5093895;28;20077;-29
2022/01/10 04:10:53;;;;;;;0.55;0.30;;;;;;;12.22;41.54;95249.44;5094804;28;20020;-30
2022/01/10 04:13:18;;;;;;;0.82;0.32;;;;;;;12.14;41.90;95245.53;5094916;28;20043;-30
2022/01/10 04:15:44;;;;;;;0.40;0.20;;;;;;;12.10;41.81;95245.75;5093429;28;20504;-30
2022/01/10 04:18:09;;;;;;;0.47;0.22;;;;;;;12.26;41.56;95244.53;5094567;28;20024;-30
2022/01/10 04:20:34;;;;;;;0.60;0.38;;;;;;;12.01;42.17;95250.47;5094773;28;20099;-30
2022/01/10 04:23:00;;;;;;;0.45;0.30;;;;;;;12.14;42.01;95256.41;5094684;28;20469;-30
2022/01/10 04:25:25;;;;;;;0.40;0.25;;;;;;;12.21;41.59;95242.50;5094677;28;20027;-30
2022/01/10 04:27:51;;;;;;;0.35;0.25;;;;;;;12.19;41.94;95250.34;5094576;28;20032;-30
2022/01/10 04:30:17;;;;;;;0.60;0.35;;;;;;;12.02;42.41;95250.00;5094559;28;20493;-30
2022/01/10 04:32:44;;;;;;;0.95;0.32;;;;;;;12.11;42.15;95244.53;5093485;28;20028;-30
2022/01/10 04:35:10;;;;;;;1.08;0.40;;;;;;;12.10;41.78;95251.19;5094544;28;20028;-31
2022/01/10 04:37:35;;;;;;;0.40;0.35;;;;;;;12.07;42.10;95252.09;5094288;28;20478;-30
2022/01/10 04:40:02;;;;;;;0.80;0.52;;;;;;;12.08;41.89;95253.59;5094381;28;20035;-30
2022/01/10 04:42:27;;;;;;;1.08;0.40;;;;;;;12.04;42.31;95253.03;5094483;28;20032;-30
2022/01/10 04:44:53;;;;;;;1.08;0.40;;;;;;;12.14;42.10;95259.13;5094127;28;20134;-30
2022/01/10 04:47:18;;;;;;;0.65;0.35;;;;;;;12.21;41.90;95258.78;5094284;28;20043;-30
2022/01/10 04:52:28;;;;;;;0.85;0.30;;;;;;;11.95;42.25;95260.50;5094087;28;20040;-30
2022/01/10 04:54:54;;;;;;;0.50;0.30;;;;;;;12.15;41.78;95263.34;5094133;28;20032;-30
2022/01/10 04:57:20;;;;;;;1.63;0.40;;;;;;;12.15;42.16;95257.91;5094394;28;20110;-31
2022/01/10 04:59:46;;;;;;;2.10;0.30;;;;;;;12.26;41.94;95270.97;5093946;28;20063;-30
2022/01/10 05:02:11;;;;;;;1.00;0.40;;;;;;;11.86;42.66;95269.47;5093957;28;20028;-30
2022/01/10 05:04:37;;;;;;;0.60;0.30;;;;;;;12.10;42.39;95272.16;5093907;28;20126;-30
2022/01/10 05:07:03;;;;;;;0.50;0.30;;;;;;;12.20;42.13;95268.16;5093833;28;20024;-30
2022/01/10 05:09:28;;;;;;;1.13;0.50;;;;;;;12.27;41.54;95275.94;5093996;28;20022;-30
2022/01/10 05:11:54;;;;;;;0.85;0.50;;;;;;;12.15;41.85;95276.94;5092539;28;20019;-29
2022/01/10 05:14:20;;;;;;;0.68;0.32;;;;;;;12.18;41.81;95284.19;5093747;28;20024;-30
2022/01/10 05:16:46;;;;;;;1.45;0.50;;;;;;;12.29;42.03;95281.69;5093566;28;20024;-30
2022/01/10 05:19:12;;;;;;;0.52;0.40;;;;;;;12.29;41.74;95287.13;5093526;28;20016;-30
2022/01/10 05:21:37;;;;;;;0.57;0.32;;;;;;;12.28;41.53;95280.19;5093604;28;20042;-30
2022/01/10 05:24:03;;;;;;;0.63;0.35;;;;;;;12.23;41.53;95287.03;5093769;28;20030;-30
2022/01/10 05:26:29;;;;;;;0.57;0.40;;;;;;;12.30;42.01;95285.16;5093516;28;20062;-30
2022/01/10 05:28:59;;;;;;;0.90;0.60;;;;;;;12.31;41.88;95281.97;5093214;28;20028;-30
2022/01/10 05:31:25;;;;;;;0.60;0.43;;;;;;;12.17;42.05;95288.09;5091187;28;20115;-31
2022/01/10 05:33:51;;;;;;;1.58;0.65;;;;;;;12.04;42.43;95285.63;5091334;28;20024;-30
2022/01/10 05:36:16;;;;;;;0.80;0.40;;;;;;;12.11;42.09;95284.53;5091332;28;20831;-30
2022/01/10 05:38:42;;;;;;;0.90;0.50;;;;;;;12.22;42.21;95273.88;5089404;28;20054;-30
2022/01/10 05:41:07;;;;;;;0.70;0.40;;;;;;;12.25;42.03;95275.66;5090508;28;20030;-30
2022/01/10 05:43:34;;;;;;;0.82;0.50;;;;;;;12.31;41.55;95286.66;5091246;28;20067;-30
2022/01/10 05:45:59;;;;;;;0.57;0.40;;;;;;;12.28;41.83;95274.75;5089874;28;20030;-30
2022/01/10 05:48:28;;;;;;;1.50;0.60;;;;;;;12.15;42.18;95276.94;5091201;28;20020;-30
2022/01/10 05:50:53;;;;;;;0.70;0.50;;;;;;;12.18;41.93;95278.75;5091425;28;20066;-30
2022/01/10 05:53:19;;;;;;;1.30;0.63;;;;;;;12.22;42.13;95274.66;5090953;28;20043;-31
2022/01/10 05:55:45;;;;;;;1.00;0.60;;;;;;;12.13;42.13;95284.81;5091241;28;20103;-30
2022/01/10 05:58:11;;;;;;;1.50;0.60;;;;;;;12.13;42.38;95276.66;5091133;28;20039;-30
2022/01/10 06:00:38;;;;;;;0.70;0.60;;;;;;;12.17;42.03;95285.41;5091194;28;20031;-30
2022/01/10 06:03:03;;;;;;;1.00;0.50;;;;;;;12.10;42.50;95283.78;5091145;28;20073;-31
2022/01/10 06:05:31;;;;;;;1.00;0.70;;;;;;;12.06;42.52;95282.44;5090863;28;20407;-30
2022/01/10 06:08:02;;;;;;;1.33;0.60;;;;;;;12.06;42.48;95274.31;5090601;28;20157;-29
2022/01/10 06:10:29;;;;;;;0.85;0.57;;;;;;;12.13;42.39;95282.09;5089506;28;20456;-30
2022/01/10 06:12:56;;;;;;;2.65;0.70;;;;;;;12.03;42.67;95286.84;5090547;28;20036;-30
2022/01/10 06:15:23;;;;;;;0.88;0.60;;;;;;;12.15;42.19;95293.25;5090591;28;20028;-30
2022/01/10 06:17:49;;;;;;;1.05;0.60;;;;;;;12.19;42.34;95282.97;5088938;28;20019;-30
2022/01/10 06:20:15;;;;;;;0.95;0.60;;;;;;;12.26;42.03;95290.00;5090636;28;20027;-30
2022/01/10 06:22:40;;;;;;;1.60;0.60;;;;;;;12.12;42.25;95278.63;5091117;28;20027;-30
2022/01/10 06:25:08;;;;;;;1.73;0.70;;;;;;;12.00;42.70;95287.00;5090930;28;20039;-30
2022/01/10 06:27:34;;;;;;;1.40;0.70;;;;;;;12.09;42.57;95287.72;5090801;28;20044;-30
2022/01/10 06:29:59;;;;;;;1.35;0.60;;;;;;;12.13;42.31;95299.16;5090800;28;20027;-30
2022/01/10 06:32:25;;;;;;;1.48;0.55;;;;;;;12.07;42.51;95289.41;5090824;28;20600;-31
2022/01/10 06:34:52;;;;;;;1.55;0.50;;;;;;;12.05;42.54;95302.69;5090858;28;20112;-31
2022/01/10 06:37:18;;;;;;;0.88;0.57;;;;;;;12.19;42.51;95288.41;5090405;28;20450;-30
2022/01/10 06:39:44;;;;;;;1.42;0.70;;;;;;;12.18;42.29;95305.94;5088907;28;20035;-30
2022/01/10 06:42:10;;;;;;;0.82;0.50;;;;;;;12.15;42.26;95313.03;5090661;28;20020;-30
2022/01/10 06:44:35;;;;;;;0.88;0.50;;;;;;;12.20;42.53;95317.09;5090563;28;20024;-30
2022/01/10 06:47:01;;;;;;;1.35;0.50;;;;;;;12.02;42.68;95309.78;5090742;28;20024;-30
2022/01/10 06:49:26;;;;;;;0.75;0.50;;;;;;;12.18;42.43;95316.78;5090856;28;20378;-30
2022/01/10 06:51:52;;;;;;;0.75;0.50;;;;;;;12.12;42.76;95319.38;5090718;28;20032;-30
2022/01/10 06:54:17;;;;;;;1.65;0.82;;;;;;;12.15;42.34;95313.03;5093647;28;20056;-30
2022/01/10 06:56:43;;;;;;;0.75;0.50;;;;;;;12.15;42.37;95313.03;5094063;28;20506;-30
2022/01/10 06:59:08;;;;;;;1.60;1.20;;;;;;;10.78;45.55;95329.06;5095884;28;20111;-31
2022/01/10 07:01:35;;;;;;;3.45;1.80;;;;;;;11.39;44.38;95322.44;5096715;28;20458;-31
2022/01/10 07:04:00;;;;;;;3.88;2.03;;;;;;;11.74;43.33;95314.63;5096239;28;20024;-31
2022/01/10 07:06:26;;;;;;;2.38;1.50;;;;;;;11.95;42.90;95312.88;5095097;28;20086;-31
2022/01/10 07:08:52;;;;;;;1.98;1.77;;;;;;;12.06;42.95;95331.38;5096286;28;20028;-31
2022/01/10 07:11:17;;;;;;;1.67;1.45;;;;;;;11.61;43.73;95318.75;5096103;28;20028;-31
2022/01/10 07:13:43;;;;;;;2.47;1.50;;;;;;;11.87;43.11;95314.41;5096162;28;20020;-31
2022/01/10 07:16:08;;;;;;;1.60;1.50;;;;;;;11.96;43.13;95319.81;5095980;28;20028;-31
2022/01/10 07:18:34;;;;;;;1.92;1.50;;;;;;;12.08;42.70;95323.50;5095934;28;20051;-31
2022/01/10 07:20:59;;;;;;;1.40;1.20;;;;;;;12.18;42.29;95325.69;5095740;28;20024;-31
2022/01/10 07:23:25;;;;;;;1.17;1.00;;;;;;;12.05;42.85;95329.88;5095855;28;20031;-32
2022/01/10 07:25:50;;;;;;;1.40;1.15;;;;;;;11.95;42.55;95320.25;5095716;28;20374;-31
2022/01/10 07:28:16;;;;;;;1.35;1.05;;;;;;;11.76;43.33;95336.66;5095804;28;20028;-31
2022/01/10 07:30:42;;;;;;;1.40;1.00;;;;;;;12.01;43.13;95356.44;5095771;28;20470;-31
2022/01/10 07:33:07;;;;;;;1.25;1.02;;;;;;;12.11;42.56;95355.22;5095821;28;20028;-31
2022/01/10 07:35:33;;;;;;;1.65;1.00;;;;;;;11.88;42.97;95362.84;5095732;28;20456;-31
2022/01/10 07:37:59;;;;;;;1.33;0.93;;;;;;;11.66;43.84;95370.47;5095699;28;20020;-31
2022/01/10 07:40:25;;;;;;;2.30;1.05;;;;;;;11.70;43.70;95373.78;5095440;28;20378;-31
2022/01/10 07:42:51;;;;;;;3.58;1.10;;;;;;;11.79;43.55;95383.88;5095565;28;20032;-31
2022/01/10 07:45:18;;;;;;;1.42;1.05;;;;;;;11.97;42.90;95385.78;5095365;28;20022;-31
2022/01/10 07:47:44;;;;;;;2.22;1.13;;;;;;;12.11;42.78;95390.53;5095420;28;20028;-31
2022/01/10 07:50:10;;;;;;;1.20;0.85;;;;;;;12.05;43.00;95411.38;5095352;28;20493;-31
2022/01/10 07:52:36;;;;;;;1.13;0.93;;;;;;;12.04;43.11;95413.34;5095133;28;20055;-31
2022/01/10 07:55:02;;;;;;;2.10;1.00;;;;;;;12.07;43.09;95414.41;5095220;28;20024;-31
2022/01/10 07:57:28;;;;;;;1.00;0.90;;;;;;;12.10;42.73;95399.91;5095393;28;20063;-31
2022/01/10 07:59:53;;;;;;;1.38;1.00;;;;;;;12.17;42.50;95403.03;5095162;28;20028;-31
2022/01/10 08:02:21;;;;;;;3.05;1.10;;;;;;;12.21;42.49;95406.34;5095095;28;20085;-31
2022/01/10 08:04:49;;;;;;;2.25;1.00;;;;;;;11.97;43.30;95404.78;5094701;28;20052;-31
2022/01/10 08:07:15;;;;;;;1.25;0.88;;;;;;;11.83;43.59;95406.19;5094887;28;20656;-31
2022/01/10 08:09:41;;;;;;;1.20;0.82;;;;;;;12.01;42.98;95421.66;5094917;28;20093;-31
2022/01/10 08:12:07;;;;;;;1.45;1.00;;;;;;;12.10;42.95;95416.97;5094722;28;20077;-31
2022/01/10 08:14:33;;;;;;;1.33;0.77;;;;;;;11.86;43.42;95427.78;5094824;28;20446;-31
2022/01/10 08:16:59;;;;;;;1.15;0.90;;;;;;;12.03;43.19;95424.69;5094640;28;20077;-31
2022/01/10 08:19:27;;;;;;;1.20;1.05;;;;;;;11.94;43.51;95428.19;5095053;28;20482;-31
2022/01/10 08:21:55;;;;;;;1.63;1.05;;;;;;;11.96;43.35;95425.03;5094695;28;20035;-31
2022/01/10 08:24:22;;;;;;;1.63;0.95;;;;;;;11.92;43.50;95429.84;5094846;28;20040;-34
2022/01/10 08:26:52;;;;;;;2.13;1.13;;;;;;;11.98;43.45;95425.31;5093407;28;20016;-33
2022/01/10 08:29:18;;;;;;;2.10;1.27;;;;;;;12.07;43.15;95431.47;5094726;28;20385;-34
2022/01/10 08:31:45;;;;;;;1.77;1.00;;;;;;;12.08;43.27;95424.81;5094710;28;20151;-33
2022/01/10 08:34:11;;;;;;;2.95;1.35;;;;;;;11.92;43.47;95429.84;5093510;28;20109;-34
2022/01/10 08:36:36;;;;;;;1.88;1.40;;;;;;;11.75;44.09;95429.41;5094129;28;20028;-33
2022/01/10 08:39:04;;;;;;;2.05;1.70;;;;;;;12.01;43.46;95425.13;5094455;28;20565;-31
2022/01/10 08:41:29;;;;;;;2.25;1.77;;;;;;;12.09;43.25;95423.59;5094468;28;20471;-31
2022/01/10 08:43:55;;;;;;;2.13;1.58;;;;;;;12.05;43.03;95416.81;5094434;28;20059;-31
2022/01/10 08:46:21;;;;;;;2.45;1.67;;;;;;;11.98;43.26;95430.75;5092343;28;20435;-31
2022/01/10 08:48:47;;;;;;;2.85;1.60;;;;;;;11.92;43.63;95435.28;5094326;28;20031;-32
2022/01/10 08:51:13;;;;;;;2.92;1.80;;;;;;;11.83;43.48;95427.94;5092783;28;20020;-31
2022/01/10 08:53:38;;;;;;;3.72;2.70;;;;;;;11.56;44.19;95434.16;5093505;28;20200;-31
2022/01/10 08:56:04;;;;;;;2.70;2.03;;;;;;;12.08;42.87;95437.66;5093470;28;20028;-31
2022/01/10 08:58:32;;;;;;;2.50;1.85;;;;;;;11.74;44.25;95425.97;5091628;28;20028;-31
2022/01/10 09:01:06;;;;;;;3.13;2.30;;;;;;;11.92;43.39;95430.59;5092544;28;20474;-31
2022/01/10 09:03:33;;;;;;;3.42;2.15;;;;;;;12.04;43.07;95432.38;5093914;28;20055;-31
2022/01/10 09:05:59;;;;;;;3.38;2.15;;;;;;;12.05;43.39;95457.59;5092695;28;20016;-31
2022/01/10 09:08:32;;;;;;;2.78;2.00;;;;;;;11.82;43.85;95448.16;5094113;28;20118;-31
2022/01/10 09:10:58;;;;;;;2.75;2.33;;;;;;;11.52;44.34;95450.59;5093793;28;20046;-31
2022/01/10 09:13:23;;;;;;;3.38;2.38;;;;;;;11.87;43.93;95440.13;5093861;28;20043;-31
2022/01/10 09:15:49;;;;;;;4.13;2.33;;;;;;;11.98;43.35;95450.53;5092841;28;20024;-31
2022/01/10 09:18:16;;;;;;;4.38;3.00;;;;;;;11.70;43.98;95457.97;5093425;28;20020;-33
2022/01/10 09:20:43;;;;;;;4.60;2.67;;;;;;;11.83;43.62;95458.56;5093633;28;20052;-30
2022/01/10 09:23:08;;;;;;;3.97;2.78;;;;;;;11.96;43.36;95468.50;5093741;28;20024;-31
2022/01/10 09:25:34;;;;;;;4.78;2.60;;;;;;;12.02;43.42;95478.28;5093459;28;20046;-31
2022/01/10 09:27:59;;;;;;;5.07;3.05;;;;;;;12.06;43.51;95472.69;5093455;28;20016;-31
2022/01/10 09:30:25;;;;;;;5.30;2.47;;;;;;;11.97;43.28;95478.16;5093485;28;20073;-31
2022/01/10 09:32:53;;;;;;;4.75;2.42;;;;;;;12.05;43.16;95476.59;5093342;28;20020;-31
2022/01/10 09:35:19;;;;;;;4.15;2.85;;;;;;;12.03;43.46;95498.81;5093320;28;20047;-32
2022/01/10 09:37:44;;;;;;;4.97;2.88;;;;;;;11.96;43.35;95495.66;5093472;28;20051;-31
2022/01/10 09:40:10;;;;;;;4.85;2.72;;;;;;;11.71;43.99;95492.06;5093370;28;20028;-31
2022/01/10 09:42:35;;;;;;;3.88;2.45;;;;;;;11.97;43.42;95491.75;5093329;28;20027;-31
2022/01/10 09:45:03;;;;;;;4.07;2.78;;;;;;;12.02;43.44;95494.56;5093191;28;20027;-31
2022/01/10 09:47:29;;;;;;;4.38;2.67;;;;;;;12.00;43.27;95507.09;5093366;28;20024;-30
2022/01/10 09:49:54;;;;;;;4.88;2.55;;;;;;;12.00;43.68;95490.81;5093353;28;20028;-32
2022/01/10 09:52:20;;;;;;;4.80;2.55;;;;;;;11.70;44.39;95495.25;5092977;28;20027;-31
2022/01/10 09:54:45;;;;;;;4.85;2.50;;;;;;;11.92;43.70;95505.94;5093182;28;20501;-31
2022/01/10 09:57:11;;;;;;;4.57;2.20;;;;;;;11.92;44.14;95497.78;5093024;28;20398;-31
2022/01/10 09:59:39;;;;;;;3.47;2.20;;;;;;;11.86;44.06;95508.53;5093384;28;20028;-30
2022/01/10 10:02:05;;;;;;;4.00;2.30;;;;;;;11.99;43.58;95492.03;5093140;28;20496;-31
2022/01/10 10:04:35;;;;;;;3.22;2.10;;;;;;;11.94;44.03;95517.09;5093308;28;20036;-31
2022/01/10 10:07:01;;;;;;;3.53;2.05;;;;;;;11.86;44.00;95509.28;5092960;28;20023;-31
2022/01/10 10:09:27;;;;;;;2.50;1.80;;;;;;;11.88;44.08;95516.94;5093124;28;20398;-31
2022/01/10 10:11:55;;;;;;;4.05;2.47;;;;;;;11.95;43.80;95511.22;5092931;28;20016;-31
2022/01/10 10:14:22;;;;;;;4.07;2.20;;;;;;;12.04;43.76;95505.00;5092985;28;20032;-31
2022/01/10 10:16:50;;;;;;;4.13;2.20;;;;;;;11.99;43.72;95500.91;5092952;28;20073;-31
2022/01/10 10:19:19;;;;;;;4.22;2.00;;;;;;;11.74;44.25;95502.03;5092937;28;20107;-31
2022/01/10 10:21:45;;;;;;;2.75;1.90;;;;;;;11.96;43.94;95511.97;5092902;28;20046;-30
2022/01/10 10:24:11;;;;;;;3.72;2.00;;;;;;;11.88;44.12;95501.41;5093075;28;20024;-31
2022/01/10 10:26:36;;;;;;;3.90;2.03;;;;;;;12.08;43.71;95506.34;5093746;28;20054;-31
2022/01/10 10:29:03;;;;;;;2.08;1.50;;;;;;;12.06;43.62;95516.16;5096928;28;20024;-30
2022/01/10 10:31:42;;;;;;;3.33;2.13;;;;;;;11.74;44.20;95507.47;5096923;28;20048;-31
2022/01/10 10:34:07;;;;;;;2.88;1.92;;;;;;;11.88;44.28;95501.41;5096860;28;20082;-31
2022/01/10 10:36:35;;;;;;;2.38;1.40;;;;;;;11.75;44.74;95491.91;5096944;28;20028;-30
2022/01/10 10:39:03;;;;;;;2.10;1.42;;;;;;;12.00;44.01;95494.28;5096756;28;20107;-30
2022/01/10 10:41:29;;;;;;;2.88;1.60;;;;;;;11.85;44.12;95496.16;5098288;28;20027;-31
2022/01/10 10:43:54;;;;;;;4.90;1.50;;;;;;;11.95;43.94;95492.19;5113387;28;20032;-31
2022/01/10 10:46:25;;;;;;;2.58;1.73;;;;;;;12.10;43.56;95492.31;5099620;28;20114;-31
2022/01/10 10:48:59;;;;;;;2.08;1.35;;;;;;;12.08;43.53;95492.75;5080372;28;20081;-31
2022/01/10 10:51:34;;;;;;;1.83;1.20;;;;;;;12.14;43.86;95503.75;5076222;28;20166;-31
2022/01/10 10:54:04;;;;;;;3.00;1.30;;;;;;;11.55;44.88;95500.53;5075875;28;20040;-31
2022/01/10 10:56:42;;;;;;;2.53;1.48;;;;;;;11.93;44.22;95508.19;5076038;28;20027;-30
2022/01/10 10:59:08;;;;;;;3.88;1.90;;;;;;;11.98;44.00;95506.84;5075910;28;20029;-31
2022/01/10 11:01:37;;;;;;;1.65;1.13;;;;;;;11.82;44.24;95497.81;5075263;28;20021;-31
2022/01/10 11:04:04;;;;;;;1.75;1.27;;;;;;;11.49;45.21;95502.38;5075817;28;20021;-32
2022/01/10 11:06:33;;;;;;;3.53;1.27;;;;;;;11.56;45.16;95512.16;5085421;28;20058;-30
2022/01/10 11:09:06;;;;;;;2.65;1.23;;;;;;;11.62;44.60;95511.06;5096055;28;20466;-31
2022/01/10 11:11:32;;;;;;;2.33;1.25;;;;;;;12.01;43.83;95505.91;5093317;28;20478;-32
2022/01/10 11:14:00;;;;;;;1.83;1.20;;;;;;;12.14;43.39;95501.03;5086040;28;20366;-31
2022/01/10 11:16:27;;;;;;;2.25;1.45;;;;;;;12.00;44.20;95488.09;5108501;28;20028;-31
2022/01/10 11:18:53;;;;;;;2.22;1.10;;;;;;;12.12;43.87;95498.00;5096005;28;20030;-31
2022/01/10 11:21:23;;;;;;;1.30;1.00;;;;;;;12.01;44.11;95489.59;5095949;28;20470;-31
2022/01/10 11:23:50;;;;;;;2.55;1.40;;;;;;;11.69;44.65;95478.19;5096207;28;20363;-31
2022/01/10 11:26:17;;;;;;;3.22;1.33;;;;;;;11.91;44.28;95472.56;5095817;28;20509;-31
2022/01/10 11:28:56;;;;;;;2.55;1.10;;;;;;;12.07;43.74;95479.63;5096244;28;20028;-31
2022/01/10 11:31:25;;;;;;;2.95;1.23;;;;;;;11.53;44.68;95471.13;5095757;28;20084;-30
2022/01/10 11:33:52;;;;;;;2.47;1.10;;;;;;;11.89;44.32;95485.84;5095629;28;20020;-31
2022/01/10 11:36:24;;;;;;;2.28;1.20;;;;;;;12.11;43.44;95474.78;5095655;28;20032;-31
2022/01/10 11:39:07;;;;;;;2.22;1.20;;;;;;;11.98;43.96;95471.50;5093518;28;20081;-30
2022/01/10 11:41:33;;;;;;;3.28;1.35;;;;;;;12.05;43.87;95471.16;5095530;28;20031;-31
2022/01/10 11:44:08;;;;;;;1.90;1.17;;;;;;;12.03;43.80;95479.03;5095572;28;20027;-31
2022/01/10 11:46:43;;;;;;;1.90;1.42;;;;;;;12.00;44.03;95488.09;5095506;28;20480;-32
2022/01/10 11:49:08;;;;;;;2.20;1.30;;;;;;;12.16;43.76;95476.88;5095402;28;20109;-31
2022/01/10 11:51:36;;;;;;;2.33;1.25;;;;;;;11.94;44.04;95492.66;5095416;28;20055;-31